sensor_id;sensor_type;location;lat;lon;timestamp;temperature;humidity
42979;DHT22;28616;44.746;19.678;2023-09-07T00:00:10;18.50;99.90
42979;DHT22;28616;44.746;19.678;2023-09-07T00:02:36;18.40;99.90
42979;DHT22;28616;44.746;19.678;2023-09-07T00:05:02;18.40;99.90
42979;DHT22;28616;44.746;19.678;2023-09-07T00:07:29;18.20;99.90
42979;DHT22;28616;44.746;19.678;2023-09-07T00:09:55;18.20;99.90
42979;DHT22;28616;44.746;19.678;2023-09-07T00:12:20;18.10;99.90
42979;DHT22;28616;44.746;19.678;2023-09-07T00:14:46;18.10;99.90
42979;DHT22;28616;44.746;19.678;2023-09-07T00:17:12;18.00;99.90
42979;DHT22;28616;44.746;19.678;2023-09-07T00:19:38;18.00;99.90
42979;DHT22;28616;44.746;19.678;2023-09-07T00:22:04;18.00;99.90
42979;DHT22;28616;44.746;19.678;2023-09-07T00:24:30;17.90;99.90
42979;DHT22;28616;44.746;19.678;2023-09-07T00:26:58;17.90;99.90
42979;DHT22;28616;44.746;19.678;2023-09-07T00:29:24;17.80;99.90
42979;DHT22;28616;44.746;19.678;2023-09-07T00:31:49;17.80;99.90
42979;DHT22;28616;44.746;19.678;2023-09-07T00:34:15;17.80;99.90
42979;DHT22;28616;44.746;19.678;2023-09-07T00:36:41;17.80;99.90
42979;DHT22;28616;44.746;19.678;2023-09-07T00:39:07;17.80;99.90
42979;DHT22;28616;44.746;19.678;2023-09-07T00:41:34;17.70;99.90
42979;DHT22;28616;44.746;19.678;2023-09-07T00:43:59;17.80;99.90
42979;DHT22;28616;44.746;19.678;2023-09-07T00:46:25;17.80;99.90
42979;DHT22;28616;44.746;19.678;2023-09-07T00:48:52;17.80;99.90
42979;DHT22;28616;44.746;19.678;2023-09-07T00:51:18;17.70;99.90
42979;DHT22;28616;44.746;19.678;2023-09-07T00:53:43;17.70;99.90
42979;DHT22;28616;44.746;19.678;2023-09-07T00:56:09;17.70;99.90
42979;DHT22;28616;44.746;19.678;2023-09-07T00:58:36;17.60;99.90
42979;DHT22;28616;44.746;19.678;2023-09-07T01:01:02;17.60;99.90
42979;DHT22;28616;44.746;19.678;2023-09-07T01:03:28;17.70;99.90
42979;DHT22;28616;44.746;19.678;2023-09-07T01:06:07;17.60;99.90
42979;DHT22;28616;44.746;19.678;2023-09-07T01:08:50;17.70;99.90
42979;DHT22;28616;44.746;19.678;2023-09-07T01:11:18;17.70;99.90
42979;DHT22;28616;44.746;19.678;2023-09-07T01:13:46;17.70;99.90
42979;DHT22;28616;44.746;19.678;2023-09-07T01:16:13;17.70;99.90
42979;DHT22;28616;44.746;19.678;2023-09-07T01:18:42;17.70;99.90
42979;DHT22;28616;44.746;19.678;2023-09-07T01:21:09;17.70;99.90
42979;DHT22;28616;44.746;19.678;2023-09-07T01:23:37;17.70;99.90
42979;DHT22;28616;44.746;19.678;2023-09-07T01:26:06;17.70;99.90
42979;DHT22;28616;44.746;19.678;2023-09-07T01:28:32;17.70;99.90
42979;DHT22;28616;44.746;19.678;2023-09-07T01:30:58;17.70;99.90
42979;DHT22;28616;44.746;19.678;2023-09-07T01:33:24;17.70;99.90
42979;DHT22;28616;44.746;19.678;2023-09-07T01:35:50;17.70;99.90
42979;DHT22;28616;44.746;19.678;2023-09-07T01:38:15;17.70;99.90
42979;DHT22;28616;44.746;19.678;2023-09-07T01:40:41;17.70;99.90
42979;DHT22;28616;44.746;19.678;2023-09-07T01:43:07;17.60;99.90
42979;DHT22;28616;44.746;19.678;2023-09-07T01:45:33;17.50;99.90
42979;DHT22;28616;44.746;19.678;2023-09-07T01:57:49;17.10;99.90
42979;DHT22;28616;44.746;19.678;2023-09-07T02:00:15;17.00;99.90
42979;DHT22;28616;44.746;19.678;2023-09-07T02:02:41;16.90;99.90
42979;DHT22;28616;44.746;19.678;2023-09-07T02:05:07;16.80;99.90
42979;DHT22;28616;44.746;19.678;2023-09-07T02:07:33;16.70;99.90
42979;DHT22;28616;44.746;19.678;2023-09-07T02:09:59;16.70;99.90
42979;DHT22;28616;44.746;19.678;2023-09-07T02:12:25;16.60;99.90
42979;DHT22;28616;44.746;19.678;2023-09-07T02:14:50;16.50;99.90
42979;DHT22;28616;44.746;19.678;2023-09-07T02:17:16;16.50;99.90
42979;DHT22;28616;44.746;19.678;2023-09-07T02:19:44;16.50;99.90
42979;DHT22;28616;44.746;19.678;2023-09-07T02:22:10;16.60;99.90
42979;DHT22;28616;44.746;19.678;2023-09-07T02:24:36;16.60;99.90
42979;DHT22;28616;44.746;19.678;2023-09-07T02:27:02;16.60;99.90
42979;DHT22;28616;44.746;19.678;2023-09-07T02:29:28;16.60;99.90
42979;DHT22;28616;44.746;19.678;2023-09-07T02:31:54;16.70;99.90
42979;DHT22;28616;44.746;19.678;2023-09-07T02:34:19;16.70;99.90
42979;DHT22;28616;44.746;19.678;2023-09-07T02:36:45;16.60;99.90
42979;DHT22;28616;44.746;19.678;2023-09-07T02:39:11;16.60;99.90
42979;DHT22;28616;44.746;19.678;2023-09-07T02:41:37;16.60;99.90
42979;DHT22;28616;44.746;19.678;2023-09-07T02:44:04;16.50;99.90
42979;DHT22;28616;44.746;19.678;2023-09-07T02:46:30;16.50;99.90
42979;DHT22;28616;44.746;19.678;2023-09-07T02:48:57;16.40;99.90
42979;DHT22;28616;44.746;19.678;2023-09-07T02:51:24;16.50;99.90
42979;DHT22;28616;44.746;19.678;2023-09-07T02:53:50;16.40;99.90
42979;DHT22;28616;44.746;19.678;2023-09-07T02:56:16;16.40;99.90
42979;DHT22;28616;44.746;19.678;2023-09-07T02:58:42;16.30;99.90
42979;DHT22;28616;44.746;19.678;2023-09-07T03:01:07;16.10;99.90
42979;DHT22;28616;44.746;19.678;2023-09-07T03:03:36;16.20;99.90
42979;DHT22;28616;44.746;19.678;2023-09-07T03:06:13;16.20;99.90
42979;DHT22;28616;44.746;19.678;2023-09-07T03:08:42;16.20;99.90
42979;DHT22;28616;44.746;19.678;2023-09-07T03:11:08;16.30;99.90
42979;DHT22;28616;44.746;19.678;2023-09-07T03:13:34;16.20;99.90
42979;DHT22;28616;44.746;19.678;2023-09-07T03:16:01;16.20;99.90
42979;DHT22;28616;44.746;19.678;2023-09-07T03:18:28;16.10;99.90
42979;DHT22;28616;44.746;19.678;2023-09-07T03:20:54;16.10;99.90
42979;DHT22;28616;44.746;19.678;2023-09-07T03:23:23;16.10;99.90
42979;DHT22;28616;44.746;19.678;2023-09-07T03:25:49;16.10;99.90
42979;DHT22;28616;44.746;19.678;2023-09-07T03:28:15;16.00;99.90
42979;DHT22;28616;44.746;19.678;2023-09-07T03:30:40;16.10;99.90
42979;DHT22;28616;44.746;19.678;2023-09-07T03:33:06;16.10;99.90
42979;DHT22;28616;44.746;19.678;2023-09-07T03:35:32;16.10;99.90
42979;DHT22;28616;44.746;19.678;2023-09-07T03:37:58;16.10;99.90
42979;DHT22;28616;44.746;19.678;2023-09-07T03:40:24;16.00;99.90
42979;DHT22;28616;44.746;19.678;2023-09-07T03:42:50;16.00;99.90
42979;DHT22;28616;44.746;19.678;2023-09-07T03:45:16;16.00;99.90
42979;DHT22;28616;44.746;19.678;2023-09-07T03:47:42;16.00;99.90
42979;DHT22;28616;44.746;19.678;2023-09-07T03:50:09;15.90;99.90
42979;DHT22;28616;44.746;19.678;2023-09-07T03:52:35;15.90;99.90
42979;DHT22;28616;44.746;19.678;2023-09-07T03:55:01;15.90;99.90
42979;DHT22;28616;44.746;19.678;2023-09-07T03:57:27;15.90;99.90
42979;DHT22;28616;44.746;19.678;2023-09-07T03:59:53;15.90;99.90
42979;DHT22;28616;44.746;19.678;2023-09-07T04:02:21;15.90;99.90
42979;DHT22;28616;44.746;19.678;2023-09-07T04:04:53;15.80;99.90
42979;DHT22;28616;44.746;19.678;2023-09-07T04:07:20;15.80;99.90
42979;DHT22;28616;44.746;19.678;2023-09-07T04:09:46;15.90;99.90
42979;DHT22;28616;44.746;19.678;2023-09-07T04:12:13;15.80;99.90
42979;DHT22;28616;44.746;19.678;2023-09-07T04:14:38;15.80;99.90
42979;DHT22;28616;44.746;19.678;2023-09-07T04:17:05;15.80;99.90
42979;DHT22;28616;44.746;19.678;2023-09-07T04:19:31;15.80;99.90
42979;DHT22;28616;44.746;19.678;2023-09-07T04:21:57;15.80;99.90
42979;DHT22;28616;44.746;19.678;2023-09-07T04:24:24;15.80;99.90
42979;DHT22;28616;44.746;19.678;2023-09-07T04:26:49;15.80;99.90
42979;DHT22;28616;44.746;19.678;2023-09-07T04:29:16;15.80;99.90
42979;DHT22;28616;44.746;19.678;2023-09-07T04:31:42;15.80;99.90
42979;DHT22;28616;44.746;19.678;2023-09-07T04:34:07;15.80;99.90
42979;DHT22;28616;44.746;19.678;2023-09-07T04:36:33;15.80;99.90
42979;DHT22;28616;44.746;19.678;2023-09-07T04:38:59;15.80;99.90
42979;DHT22;28616;44.746;19.678;2023-09-07T04:41:25;15.90;99.90
42979;DHT22;28616;44.746;19.678;2023-09-07T04:43:51;15.90;99.90
42979;DHT22;28616;44.746;19.678;2023-09-07T04:46:17;16.00;99.90
42979;DHT22;28616;44.746;19.678;2023-09-07T04:48:42;16.00;99.90
42979;DHT22;28616;44.746;19.678;2023-09-07T04:51:09;16.00;99.90
42979;DHT22;28616;44.746;19.678;2023-09-07T04:53:37;16.10;99.90
42979;DHT22;28616;44.746;19.678;2023-09-07T04:56:03;16.00;99.90
42979;DHT22;28616;44.746;19.678;2023-09-07T04:58:30;16.00;99.90
42979;DHT22;28616;44.746;19.678;2023-09-07T05:03:29;16.00;99.90
42979;DHT22;28616;44.746;19.678;2023-09-07T05:05:55;16.10;99.90
42979;DHT22;28616;44.746;19.678;2023-09-07T05:08:22;16.10;99.90
42979;DHT22;28616;44.746;19.678;2023-09-07T05:10:48;16.20;99.90
42979;DHT22;28616;44.746;19.678;2023-09-07T05:13:14;16.40;99.90
42979;DHT22;28616;44.746;19.678;2023-09-07T05:15:50;16.40;99.90
42979;DHT22;28616;44.746;19.678;2023-09-07T05:18:16;16.50;99.90
42979;DHT22;28616;44.746;19.678;2023-09-07T05:20:43;16.50;99.90
42979;DHT22;28616;44.746;19.678;2023-09-07T05:23:15;16.60;99.90
42979;DHT22;28616;44.746;19.678;2023-09-07T05:25:50;16.70;99.90
42979;DHT22;28616;44.746;19.678;2023-09-07T05:28:18;16.80;99.90
42979;DHT22;28616;44.746;19.678;2023-09-07T05:30:44;16.70;99.90
42979;DHT22;28616;44.746;19.678;2023-09-07T05:33:11;16.70;99.90
42979;DHT22;28616;44.746;19.678;2023-09-07T05:35:37;16.80;99.90
42979;DHT22;28616;44.746;19.678;2023-09-07T05:38:04;16.80;99.90
42979;DHT22;28616;44.746;19.678;2023-09-07T05:40:34;16.90;99.90
42979;DHT22;28616;44.746;19.678;2023-09-07T05:43:00;17.00;99.90
42979;DHT22;28616;44.746;19.678;2023-09-07T05:45:26;17.00;99.90
42979;DHT22;28616;44.746;19.678;2023-09-07T05:47:51;17.20;99.90
42979;DHT22;28616;44.746;19.678;2023-09-07T05:50:17;17.20;99.90
42979;DHT22;28616;44.746;19.678;2023-09-07T05:52:43;17.30;99.90
42979;DHT22;28616;44.746;19.678;2023-09-07T05:55:08;17.50;99.90
42979;DHT22;28616;44.746;19.678;2023-09-07T05:57:34;17.60;99.90
42979;DHT22;28616;44.746;19.678;2023-09-07T06:00:00;17.80;99.90
42979;DHT22;28616;44.746;19.678;2023-09-07T06:02:26;18.00;99.90
42979;DHT22;28616;44.746;19.678;2023-09-07T06:04:51;18.00;99.90
42979;DHT22;28616;44.746;19.678;2023-09-07T06:07:17;18.10;99.90
42979;DHT22;28616;44.746;19.678;2023-09-07T06:09:43;18.30;99.90
42979;DHT22;28616;44.746;19.678;2023-09-07T06:12:09;18.40;99.90
42979;DHT22;28616;44.746;19.678;2023-09-07T06:17:01;18.70;99.90
42979;DHT22;28616;44.746;19.678;2023-09-07T06:19:26;18.80;99.90
42979;DHT22;28616;44.746;19.678;2023-09-07T06:24:18;19.00;99.90
42979;DHT22;28616;44.746;19.678;2023-09-07T06:26:44;19.10;99.90
42979;DHT22;28616;44.746;19.678;2023-09-07T06:29:11;19.20;99.90
42979;DHT22;28616;44.746;19.678;2023-09-07T06:31:37;19.20;99.90
42979;DHT22;28616;44.746;19.678;2023-09-07T06:34:03;19.30;99.90
42979;DHT22;28616;44.746;19.678;2023-09-07T06:36:30;19.40;99.90
42979;DHT22;28616;44.746;19.678;2023-09-07T06:38:57;19.60;99.90
42979;DHT22;28616;44.746;19.678;2023-09-07T06:41:24;19.70;99.90
42979;DHT22;28616;44.746;19.678;2023-09-07T06:43:50;19.90;99.90
42979;DHT22;28616;44.746;19.678;2023-09-07T06:46:16;19.90;99.90
42979;DHT22;28616;44.746;19.678;2023-09-07T06:48:41;20.10;99.90
42979;DHT22;28616;44.746;19.678;2023-09-07T06:51:07;20.20;99.90
42979;DHT22;28616;44.746;19.678;2023-09-07T06:53:34;20.30;99.90
42979;DHT22;28616;44.746;19.678;2023-09-07T06:56:02;20.40;99.90
42979;DHT22;28616;44.746;19.678;2023-09-07T06:58:28;20.50;99.90
42979;DHT22;28616;44.746;19.678;2023-09-07T07:00:58;20.60;99.90
42979;DHT22;28616;44.746;19.678;2023-09-07T07:03:28;20.80;99.90
42979;DHT22;28616;44.746;19.678;2023-09-07T07:05:54;21.10;99.90
42979;DHT22;28616;44.746;19.678;2023-09-07T07:08:20;21.10;99.90
42979;DHT22;28616;44.746;19.678;2023-09-07T07:10:46;21.20;99.90
42979;DHT22;28616;44.746;19.678;2023-09-07T07:13:12;21.30;99.90
42979;DHT22;28616;44.746;19.678;2023-09-07T07:15:38;21.60;99.90
42979;DHT22;28616;44.746;19.678;2023-09-07T07:18:04;21.90;99.90
42979;DHT22;28616;44.746;19.678;2023-09-07T07:20:42;22.00;99.90
42979;DHT22;28616;44.746;19.678;2023-09-07T07:23:09;22.20;99.90
42979;DHT22;28616;44.746;19.678;2023-09-07T18:07:16;24.80;51.70
42979;DHT22;28616;44.746;19.678;2023-09-07T18:09:42;24.60;52.70
42979;DHT22;28616;44.746;19.678;2023-09-07T18:12:08;24.50;53.10
42979;DHT22;28616;44.746;19.678;2023-09-07T18:14:34;24.50;53.60
42979;DHT22;28616;44.746;19.678;2023-09-07T18:17:00;24.40;54.10
42979;DHT22;28616;44.746;19.678;2023-09-07T18:19:25;24.30;54.60
42979;DHT22;28616;44.746;19.678;2023-09-07T18:21:51;24.20;54.80
42979;DHT22;28616;44.746;19.678;2023-09-07T18:24:17;24.20;54.90
42979;DHT22;28616;44.746;19.678;2023-09-07T18:26:43;24.10;55.40
42979;DHT22;28616;44.746;19.678;2023-09-07T18:29:16;24.10;55.40
42979;DHT22;28616;44.746;19.678;2023-09-07T18:31:43;24.00;55.80
42979;DHT22;28616;44.746;19.678;2023-09-07T18:34:09;24.00;55.80
42979;DHT22;28616;44.746;19.678;2023-09-07T18:36:34;23.90;56.50
42979;DHT22;28616;44.746;19.678;2023-09-07T18:39:00;23.80;56.50
42979;DHT22;28616;44.746;19.678;2023-09-07T18:41:26;23.80;56.50
42979;DHT22;28616;44.746;19.678;2023-09-07T18:43:52;23.70;57.00
42979;DHT22;28616;44.746;19.678;2023-09-07T18:46:18;23.70;57.20
42979;DHT22;28616;44.746;19.678;2023-09-07T18:48:44;23.70;56.80
42979;DHT22;28616;44.746;19.678;2023-09-07T18:51:09;23.70;56.80
42979;DHT22;28616;44.746;19.678;2023-09-07T18:53:36;23.70;57.40
42979;DHT22;28616;44.746;19.678;2023-09-07T18:56:06;23.70;57.30
42979;DHT22;28616;44.746;19.678;2023-09-07T18:58:33;23.60;57.20
42979;DHT22;28616;44.746;19.678;2023-09-07T19:01:10;23.60;57.50
42979;DHT22;28616;44.746;19.678;2023-09-07T19:03:36;23.50;57.60
42979;DHT22;28616;44.746;19.678;2023-09-07T19:06:02;23.50;57.90
42979;DHT22;28616;44.746;19.678;2023-09-07T19:08:28;23.40;58.00
42979;DHT22;28616;44.746;19.678;2023-09-07T19:10:54;23.40;58.50
42979;DHT22;28616;44.746;19.678;2023-09-07T19:13:20;23.30;58.50
42979;DHT22;28616;44.746;19.678;2023-09-07T19:15:46;23.20;58.50
42979;DHT22;28616;44.746;19.678;2023-09-07T19:18:12;23.20;58.70
42979;DHT22;28616;44.746;19.678;2023-09-07T19:20:38;23.20;59.00
42979;DHT22;28616;44.746;19.678;2023-09-07T19:23:04;23.20;59.10
42979;DHT22;28616;44.746;19.678;2023-09-07T19:25:30;23.20;59.10
42979;DHT22;28616;44.746;19.678;2023-09-07T19:27:58;23.10;59.10
42979;DHT22;28616;44.746;19.678;2023-09-07T19:30:24;23.10;59.50
42979;DHT22;28616;44.746;19.678;2023-09-07T19:32:50;23.00;59.50
42979;DHT22;28616;44.746;19.678;2023-09-07T19:35:15;23.00;59.70
42979;DHT22;28616;44.746;19.678;2023-09-07T19:37:41;23.00;59.90
42979;DHT22;28616;44.746;19.678;2023-09-07T19:40:07;23.00;60.20
42979;DHT22;28616;44.746;19.678;2023-09-07T19:42:33;22.90;60.20
42979;DHT22;28616;44.746;19.678;2023-09-07T19:44:59;22.90;60.50
42979;DHT22;28616;44.746;19.678;2023-09-07T19:47:25;22.80;60.40
42979;DHT22;28616;44.746;19.678;2023-09-07T19:49:50;22.80;60.70
42979;DHT22;28616;44.746;19.678;2023-09-07T19:52:16;22.80;60.70
42979;DHT22;28616;44.746;19.678;2023-09-07T19:54:42;22.70;60.50
42979;DHT22;28616;44.746;19.678;2023-09-07T19:57:08;22.70;60.60
42979;DHT22;28616;44.746;19.678;2023-09-07T19:59:33;22.70;60.50
42979;DHT22;28616;44.746;19.678;2023-09-07T20:02:00;22.60;60.80
42979;DHT22;28616;44.746;19.678;2023-09-07T20:04:28;22.60;60.80
42979;DHT22;28616;44.746;19.678;2023-09-07T20:06:55;22.60;60.80
42979;DHT22;28616;44.746;19.678;2023-09-07T20:09:21;22.40;61.80
42979;DHT22;28616;44.746;19.678;2023-09-07T20:11:47;22.40;61.70
42979;DHT22;28616;44.746;19.678;2023-09-07T20:14:14;22.40;62.00
42979;DHT22;28616;44.746;19.678;2023-09-07T20:16:40;22.30;62.20
42979;DHT22;28616;44.746;19.678;2023-09-07T20:19:07;22.30;63.30
42979;DHT22;28616;44.746;19.678;2023-09-07T20:21:33;22.20;63.20
42979;DHT22;28616;44.746;19.678;2023-09-07T20:23:58;22.20;63.20
42979;DHT22;28616;44.746;19.678;2023-09-07T20:26:24;22.20;63.30
42979;DHT22;28616;44.746;19.678;2023-09-07T20:28:50;22.10;63.90
42979;DHT22;28616;44.746;19.678;2023-09-07T20:31:18;22.10;64.30
42979;DHT22;28616;44.746;19.678;2023-09-07T20:33:45;22.00;65.70
42979;DHT22;28616;44.746;19.678;2023-09-07T20:36:11;22.00;66.70
42979;DHT22;28616;44.746;19.678;2023-09-07T20:38:37;21.90;67.80
42979;DHT22;28616;44.746;19.678;2023-09-07T20:41:04;21.80;68.40
42979;DHT22;28616;44.746;19.678;2023-09-07T20:43:31;21.70;69.40
42979;DHT22;28616;44.746;19.678;2023-09-07T20:45:57;21.70;69.70
42979;DHT22;28616;44.746;19.678;2023-09-07T20:48:23;21.60;70.30
42979;DHT22;28616;44.746;19.678;2023-09-07T20:50:49;21.60;70.70
42979;DHT22;28616;44.746;19.678;2023-09-07T20:53:16;21.50;71.20
42979;DHT22;28616;44.746;19.678;2023-09-07T20:55:43;21.50;71.50
42979;DHT22;28616;44.746;19.678;2023-09-07T20:58:08;21.40;72.10
42979;DHT22;28616;44.746;19.678;2023-09-07T21:00:34;21.40;72.40
42979;DHT22;28616;44.746;19.678;2023-09-07T21:03:00;21.30;72.70
42979;DHT22;28616;44.746;19.678;2023-09-07T21:05:26;21.20;73.50
42979;DHT22;28616;44.746;19.678;2023-09-07T21:07:53;21.10;74.10
42979;DHT22;28616;44.746;19.678;2023-09-07T21:10:19;21.00;75.30
42979;DHT22;28616;44.746;19.678;2023-09-07T21:12:45;20.90;76.20
42979;DHT22;28616;44.746;19.678;2023-09-07T21:15:11;20.90;77.30
42979;DHT22;28616;44.746;19.678;2023-09-07T21:17:43;20.90;78.00
42979;DHT22;28616;44.746;19.678;2023-09-07T21:20:10;20.80;78.80
42979;DHT22;28616;44.746;19.678;2023-09-07T21:22:39;20.80;79.40
42979;DHT22;28616;44.746;19.678;2023-09-07T21:25:07;20.70;79.70
42979;DHT22;28616;44.746;19.678;2023-09-07T21:27:34;20.60;81.70
42979;DHT22;28616;44.746;19.678;2023-09-07T21:30:01;20.50;82.20
42979;DHT22;28616;44.746;19.678;2023-09-07T21:32:27;20.30;84.70
42979;DHT22;28616;44.746;19.678;2023-09-07T21:34:53;20.20;87.80
42979;DHT22;28616;44.746;19.678;2023-09-07T21:37:18;20.10;89.80
42979;DHT22;28616;44.746;19.678;2023-09-07T21:39:48;20.10;90.80
42979;DHT22;28616;44.746;19.678;2023-09-07T21:42:14;20.00;91.30
42979;DHT22;28616;44.746;19.678;2023-09-07T21:44:40;20.00;92.50
42979;DHT22;28616;44.746;19.678;2023-09-07T21:47:06;20.00;93.60
42979;DHT22;28616;44.746;19.678;2023-09-07T21:49:34;20.00;94.00
42979;DHT22;28616;44.746;19.678;2023-09-07T21:52:00;20.00;95.20
42979;DHT22;28616;44.746;19.678;2023-09-07T21:54:25;19.90;96.20
42979;DHT22;28616;44.746;19.678;2023-09-07T21:56:51;19.80;98.10
42979;DHT22;28616;44.746;19.678;2023-09-07T21:59:17;19.70;99.20
42979;DHT22;28616;44.746;19.678;2023-09-07T22:01:43;19.70;99.90
42979;DHT22;28616;44.746;19.678;2023-09-07T22:04:09;19.70;99.90
42979;DHT22;28616;44.746;19.678;2023-09-07T22:06:35;19.70;99.90
42979;DHT22;28616;44.746;19.678;2023-09-07T22:09:03;19.70;99.90
42979;DHT22;28616;44.746;19.678;2023-09-07T22:11:30;19.70;99.90
42979;DHT22;28616;44.746;19.678;2023-09-07T22:13:56;19.70;99.90
42979;DHT22;28616;44.746;19.678;2023-09-07T22:16:21;19.70;99.90
42979;DHT22;28616;44.746;19.678;2023-09-07T22:18:47;19.60;99.90
42979;DHT22;28616;44.746;19.678;2023-09-07T22:21:13;19.60;99.90
42979;DHT22;28616;44.746;19.678;2023-09-07T22:23:39;19.60;99.90
42979;DHT22;28616;44.746;19.678;2023-09-07T22:26:04;19.60;99.90
42979;DHT22;28616;44.746;19.678;2023-09-07T22:28:31;19.70;99.90
42979;DHT22;28616;44.746;19.678;2023-09-07T22:30:57;19.70;99.90
42979;DHT22;28616;44.746;19.678;2023-09-07T22:33:23;19.70;99.90
42979;DHT22;28616;44.746;19.678;2023-09-07T22:35:49;19.70;99.90
42979;DHT22;28616;44.746;19.678;2023-09-07T22:38:15;19.60;99.90
42979;DHT22;28616;44.746;19.678;2023-09-07T22:40:41;19.60;99.90
42979;DHT22;28616;44.746;19.678;2023-09-07T22:43:06;19.60;99.90
42979;DHT22;28616;44.746;19.678;2023-09-07T22:45:38;19.60;99.90
42979;DHT22;28616;44.746;19.678;2023-09-07T22:48:09;19.50;99.90
42979;DHT22;28616;44.746;19.678;2023-09-07T22:50:35;19.50;99.90
42979;DHT22;28616;44.746;19.678;2023-09-07T22:53:01;19.40;99.90
42979;DHT22;28616;44.746;19.678;2023-09-07T22:55:56;19.40;99.90
42979;DHT22;28616;44.746;19.678;2023-09-07T22:58:22;19.40;99.90
42979;DHT22;28616;44.746;19.678;2023-09-07T23:00:48;19.40;99.90
42979;DHT22;28616;44.746;19.678;2023-09-07T23:03:15;19.40;99.90
42979;DHT22;28616;44.746;19.678;2023-09-07T23:05:41;19.40;99.90
42979;DHT22;28616;44.746;19.678;2023-09-07T23:08:14;19.40;99.90
42979;DHT22;28616;44.746;19.678;2023-09-07T23:10:40;19.30;99.90
42979;DHT22;28616;44.746;19.678;2023-09-07T23:13:08;19.30;99.90
42979;DHT22;28616;44.746;19.678;2023-09-07T23:15:34;19.20;99.90
42979;DHT22;28616;44.746;19.678;2023-09-07T23:18:00;19.20;99.90
42979;DHT22;28616;44.746;19.678;2023-09-07T23:20:26;19.10;99.90
42979;DHT22;28616;44.746;19.678;2023-09-07T23:22:52;19.10;99.90
42979;DHT22;28616;44.746;19.678;2023-09-07T23:25:17;19.10;99.90
42979;DHT22;28616;44.746;19.678;2023-09-07T23:27:43;19.10;99.90
42979;DHT22;28616;44.746;19.678;2023-09-07T23:30:09;19.00;99.90
42979;DHT22;28616;44.746;19.678;2023-09-07T23:32:36;19.00;99.90
42979;DHT22;28616;44.746;19.678;2023-09-07T23:35:06;19.00;99.90
42979;DHT22;28616;44.746;19.678;2023-09-07T23:37:33;18.90;99.90
42979;DHT22;28616;44.746;19.678;2023-09-07T23:39:59;18.90;99.90
42979;DHT22;28616;44.746;19.678;2023-09-07T23:42:25;18.90;99.90
42979;DHT22;28616;44.746;19.678;2023-09-07T23:44:54;18.90;99.90
42979;DHT22;28616;44.746;19.678;2023-09-07T23:47:20;18.90;99.90
42979;DHT22;28616;44.746;19.678;2023-09-07T23:49:46;18.90;99.90
42979;DHT22;28616;44.746;19.678;2023-09-07T23:52:12;18.80;99.90
42979;DHT22;28616;44.746;19.678;2023-09-07T23:54:40;18.70;99.90
42979;DHT22;28616;44.746;19.678;2023-09-07T23:57:05;18.70;99.90
42979;DHT22;28616;44.746;19.678;2023-09-07T23:59:31;18.60;99.90
